Time;durP1;ratioP1;P1;durP2;ratioP2;P2;SDS_P1;SDS_P2;PMS_P1;PMS_P2;Temp;Humidity;BMP_temperature;BMP_pressure;BME280_temperature;BME280_humidity;BME280_pressure;Samples;Min_cycle;Max_cycle;Signal;HPM_P1;HPM_P2
2021/11/24 00:00:35;;;;;;;13.35;10.20;;;7.00;99.90;;;;;;5034592;28;20196;-83
2021/11/24 00:03:03;;;;;;;13.93;9.73;;;7.00;99.90;;;;;;5026906;28;20200;-84
2021/11/24 00:05:31;;;;;;;16.33;10.95;;;7.10;99.90;;;;;;5031882;28;20258;-83
2021/11/24 00:07:59;;;;;;;10.43;8.45;;;7.20;99.90;;;;;;5035717;28;20200;-85
2021/11/24 00:10:32;;;;;;;15.45;9.15;;;7.20;99.90;;;;;;5029390;28;20225;-85
2021/11/24 00:12:59;;;;;;;13.30;9.02;;;7.30;99.90;;;;;;5031075;28;20502;-85
2021/11/24 00:15:27;;;;;;;13.93;9.80;;;7.20;99.90;;;;;;5043116;28;20211;-85
2021/11/24 00:17:55;;;;;;;8.80;7.72;;;7.30;99.90;;;;;;5034333;28;20204;-84
2021/11/24 00:20:23;;;;;;;19.08;9.10;;;7.10;99.90;;;;;;5047843;28;20208;-84
2021/11/24 00:22:50;;;;;;;15.00;8.45;;;7.10;99.90;;;;;;5033147;28;20204;-85
2021/11/24 00:25:18;;;;;;;10.25;8.10;;;7.10;99.90;;;;;;5036801;28;20196;-85
2021/11/24 00:27:47;;;;;;;8.48;6.97;;;7.20;99.90;;;;;;5039824;28;20211;-85
2021/11/24 00:30:15;;;;;;;10.15;7.32;;;7.30;99.90;;;;;;5043055;28;20224;-85
2021/11/24 00:32:42;;;;;;;11.18;8.23;;;7.40;99.90;;;;;;5048912;28;20197;-85
2021/11/24 00:35:10;;;;;;;8.00;6.22;;;7.30;99.90;;;;;;5035624;28;20426;-85
2021/11/24 00:37:37;;;;;;;10.93;7.20;;;7.20;99.90;;;;;;5035385;28;20204;-85
2021/11/24 00:40:06;;;;;;;8.50;6.32;;;7.10;99.90;;;;;;5032005;28;20278;-84
2021/11/24 00:42:34;;;;;;;8.43;7.10;;;7.00;99.90;;;;;;5035847;28;20292;-84
2021/11/24 00:45:03;;;;;;;10.18;6.32;;;7.00;99.90;;;;;;5032868;28;20434;-86
2021/11/24 00:47:31;;;;;;;11.15;7.28;;;6.90;99.90;;;;;;5026705;28;20224;-85
2021/11/24 00:49:59;;;;;;;9.73;7.45;;;7.10;99.90;;;;;;5032811;28;20235;-85
2021/11/24 00:52:28;;;;;;;7.25;6.05;;;7.20;99.90;;;;;;5034917;28;20553;-86
2021/11/24 00:54:57;;;;;;;7.80;6.72;;;7.30;99.90;;;;;;5040546;28;20196;-87
2021/11/24 00:57:25;;;;;;;12.63;7.82;;;7.40;99.90;;;;;;5042444;28;20197;-87
2021/11/24 00:59:53;;;;;;;8.73;5.97;;;7.30;99.90;;;;;;5039152;28;20212;-87
2021/11/24 01:02:20;;;;;;;7.78;6.28;;;7.40;99.90;;;;;;5032801;28;20220;-87
2021/11/24 01:04:49;;;;;;;10.15;7.10;;;7.40;99.90;;;;;;5034002;28;20270;-87
2021/11/24 01:07:16;;;;;;;9.25;6.90;;;7.40;99.90;;;;;;5032627;28;20250;-86
2021/11/24 01:09:44;;;;;;;8.73;6.57;;;7.20;99.90;;;;;;5040895;28;20303;-86
2021/11/24 01:12:11;;;;;;;6.55;5.60;;;7.30;99.90;;;;;;5048101;28;20208;-86
2021/11/24 01:14:39;;;;;;;8.50;5.53;;;7.40;99.90;;;;;;5027266;28;20223;-84
2021/11/24 01:17:07;;;;;;;8.38;5.80;;;7.40;99.90;;;;;;5032874;28;20203;-85
2021/11/24 01:19:34;;;;;;;11.95;7.45;;;7.10;99.90;;;;;;5032707;28;20200;-85
2021/11/24 01:22:02;;;;;;;10.63;6.75;;;7.10;99.90;;;;;;5032400;28;20216;-83
2021/11/24 01:24:30;;;;;;;7.65;6.38;;;7.10;99.90;;;;;;5050577;28;20267;-82
2021/11/24 01:26:57;;;;;;;5.38;4.60;;;7.00;99.90;;;;;;5041719;28;20197;-84
2021/11/24 01:29:25;;;;;;;10.40;8.35;;;7.00;99.90;;;;;;5041807;28;20363;-84
2021/11/24 01:31:52;;;;;;;7.38;5.28;;;7.00;99.90;;;;;;5042638;28;20197;-86
2021/11/24 01:34:20;;;;;;;10.35;7.40;;;7.00;99.90;;;;;;5049262;28;20200;-84
2021/11/24 01:36:48;;;;;;;9.85;8.30;;;6.90;99.90;;;;;;5052047;28;20205;-84
2021/11/24 01:39:15;;;;;;;8.80;6.75;;;7.00;99.90;;;;;;5049927;28;20224;-83
2021/11/24 01:41:43;;;;;;;10.27;7.90;;;7.00;99.90;;;;;;5041285;28;20208;-84
2021/11/24 01:44:25;;;;;;;12.18;7.85;;;6.80;99.90;;;;;;5043117;28;20219;-84
2021/11/24 01:47:04;;;;;;;18.20;8.50;;;6.80;99.90;;;;;;5034857;28;20378;-84
2021/11/24 01:49:33;;;;;;;9.40;7.20;;;6.80;99.90;;;;;;5035474;28;20219;-85
2021/11/24 01:52:01;;;;;;;9.60;8.27;;;7.00;99.90;;;;;;5041017;28;20199;-84
2021/11/24 01:54:30;;;;;;;7.82;6.85;;;7.00;99.90;;;;;;5036782;28;20363;-84
2021/11/24 01:56:58;;;;;;;10.85;8.27;;;7.20;99.90;;;;;;5034475;28;20206;-84
2021/11/24 01:59:26;;;;;;;9.85;8.05;;;7.10;99.90;;;;;;5039551;28;20244;-84
2021/11/24 02:01:55;;;;;;;12.48;7.97;;;7.10;99.90;;;;;;5036405;28;20213;-86
2021/11/24 02:04:22;;;;;;;14.30;8.57;;;7.10;99.90;;;;;;5031249;28;20204;-85
2021/11/24 02:06:51;;;;;;;11.75;8.73;;;7.10;99.90;;;;;;5040971;28;20208;-83
2021/11/24 02:09:20;;;;;;;12.65;9.10;;;7.20;99.90;;;;;;5031579;28;20275;-84
2021/11/24 02:11:48;;;;;;;12.85;7.75;;;7.10;99.90;;;;;;5033261;28;20231;-85
2021/11/24 02:14:17;;;;;;;11.32;7.90;;;7.30;99.90;;;;;;5036251;28;20251;-84
2021/11/24 02:16:48;;;;;;;11.52;7.82;;;7.20;99.90;;;;;;5026049;28;20484;-83
2021/11/24 02:19:16;;;;;;;15.15;6.95;;;7.20;99.90;;;;;;5035945;28;20203;-84
2021/11/24 02:21:52;;;;;;;12.68;7.80;;;7.40;99.90;;;;;;5038155;28;20327;-84
2021/11/24 02:24:21;;;;;;;13.25;8.85;;;7.40;99.90;;;;;;5036569;28;20250;-85
2021/11/24 02:26:49;;;;;;;9.23;7.35;;;7.40;99.90;;;;;;5048127;28;20208;-85
2021/11/24 02:29:17;;;;;;;9.98;7.63;;;7.60;99.90;;;;;;5049915;28;20220;-85
2021/11/24 02:31:49;;;;;;;10.85;7.80;;;7.70;99.90;;;;;;5042946;28;20425;-83
2021/11/24 02:34:17;;;;;;;11.68;7.88;;;7.60;99.90;;;;;;5029999;28;20204;-84
2021/11/24 02:36:46;;;;;;;10.93;7.72;;;7.70;99.90;;;;;;5032371;28;20498;-85
2021/11/24 02:39:14;;;;;;;10.80;8.13;;;7.70;99.90;;;;;;5033467;28;20425;-84
2021/11/24 02:41:42;;;;;;;11.70;7.93;;;7.70;99.90;;;;;;5039823;28;20207;-84
2021/11/24 02:44:26;;;;;;;11.35;8.00;;;7.80;99.90;;;;;;5036783;28;20397;-84
2021/11/24 02:47:07;;;;;;;11.88;7.75;;;7.70;99.90;;;;;;5032213;28;20292;-84
2021/11/24 02:49:42;;;;;;;10.98;7.22;;;7.60;99.90;;;;;;5035358;28;20228;-85
2021/11/24 02:52:11;;;;;;;9.80;7.38;;;7.60;99.90;;;;;;5033505;28;20246;-85
2021/11/24 02:54:39;;;;;;;11.30;8.45;;;7.60;99.90;;;;;;5027427;28;20304;-84
2021/11/24 02:57:08;;;;;;;12.35;9.30;;;7.50;99.90;;;;;;5031886;28;20250;-84
2021/11/24 02:59:39;;;;;;;9.00;6.68;;;7.50;99.90;;;;;;5037271;28;20204;-85
2021/11/24 03:02:07;;;;;;;10.85;6.72;;;7.40;99.90;;;;;;5030716;28;20200;-85
2021/11/24 03:04:35;;;;;;;11.25;8.10;;;7.40;99.90;;;;;;5040469;28;20274;-85
2021/11/24 03:07:03;;;;;;;11.07;8.80;;;7.30;99.90;;;;;;5028905;28;20207;-85
2021/11/24 03:09:31;;;;;;;16.95;10.45;;;7.40;99.90;;;;;;5038286;28;20394;-85
2021/11/24 03:11:58;;;;;;;10.20;7.88;;;7.10;99.90;;;;;;5039196;28;20231;-85
2021/11/24 03:14:26;;;;;;;9.45;7.05;;;7.00;99.90;;;;;;5035110;28;20208;-85
2021/11/24 03:16:55;;;;;;;10.82;7.57;;;7.20;99.90;;;;;;5038897;28;20204;-85
2021/11/24 03:19:23;;;;;;;9.20;6.82;;;7.20;99.90;;;;;;5030538;28;20199;-85
2021/11/24 03:21:50;;;;;;;10.00;7.32;;;7.10;99.90;;;;;;5034898;28;20284;-84
2021/11/24 03:24:17;;;;;;;10.88;8.82;;;7.10;99.90;;;;;;5036397;28;20282;-84
2021/11/24 03:26:45;;;;;;;9.85;7.03;;;7.00;99.90;;;;;;5035065;28;20208;-84
2021/11/24 03:29:12;;;;;;;10.73;7.60;;;7.00;99.90;;;;;;5037908;28;20204;-84
2021/11/24 03:31:40;;;;;;;11.50;8.98;;;6.80;99.90;;;;;;5039794;28;20246;-85
2021/11/24 03:34:09;;;;;;;12.40;8.82;;;7.00;99.90;;;;;;5032685;28;20559;-84
2021/11/24 03:36:37;;;;;;;10.23;8.65;;;6.90;99.90;;;;;;5037434;28;20255;-84
2021/11/24 03:39:06;;;;;;;12.93;9.77;;;6.90;99.90;;;;;;5045284;28;20510;-84
2021/11/24 03:41:35;;;;;;;15.85;10.23;;;6.90;99.90;;;;;;5034381;28;20193;-84
2021/11/24 03:44:03;;;;;;;11.35;7.85;;;7.00;99.90;;;;;;5038895;28;20497;-83
2021/11/24 03:46:30;;;;;;;13.18;9.27;;;6.90;99.90;;;;;;5035895;28;20457;-84
2021/11/24 03:48:58;;;;;;;11.38;8.70;;;6.70;99.90;;;;;;5043163;28;20218;-85
2021/11/24 03:51:26;;;;;;;10.68;8.10;;;6.70;99.90;;;;;;5034494;28;20228;-84
2021/11/24 03:53:53;;;;;;;15.18;9.82;;;6.90;99.90;;;;;;5043632;28;20197;-84
2021/11/24 03:56:21;;;;;;;10.55;8.60;;;7.00;99.90;;;;;;5032643;28;20552;-85
2021/11/24 03:58:48;;;;;;;10.35;7.65;;;7.10;99.90;;;;;;5028176;28;20251;-85
2021/11/24 04:01:15;;;;;;;10.90;9.07;;;7.30;99.90;;;;;;5039628;28;20251;-85
2021/11/24 04:03:43;;;;;;;15.65;10.10;;;7.20;99.90;;;;;;5027037;28;20506;-85
2021/11/24 04:06:11;;;;;;;11.88;8.55;;;7.20;99.90;;;;;;5032168;28;20510;-85
2021/11/24 04:08:38;;;;;;;13.07;8.93;;;7.30;99.90;;;;;;5036353;28;20208;-85
2021/11/24 04:11:06;;;;;;;16.08;9.75;;;7.40;99.90;;;;;;5031773;28;20234;-85
2021/11/24 04:13:33;;;;;;;11.23;8.75;;;7.30;99.90;;;;;;5040047;28;20271;-85
2021/11/24 04:16:01;;;;;;;15.38;10.35;;;7.30;99.90;;;;;;5042711;28;20389;-84
2021/11/24 04:18:28;;;;;;;17.17;9.88;;;7.20;99.90;;;;;;5042432;28;20448;-84
2021/11/24 04:20:56;;;;;;;15.82;9.32;;;7.10;99.90;;;;;;5040974;28;20212;-83
2021/11/24 04:23:24;;;;;;;13.75;9.75;;;6.80;99.90;;;;;;5044745;28;20246;-83
2021/11/24 04:25:52;;;;;;;13.38;9.68;;;6.90;99.90;;;;;;5047718;28;20228;-83
2021/11/24 04:28:19;;;;;;;10.75;8.63;;;7.00;99.90;;;;;;5044277;28;20564;-85
2021/11/24 04:30:47;;;;;;;13.18;8.15;;;6.90;99.90;;;;;;5028758;28;20233;-86
2021/11/24 04:33:14;;;;;;;13.85;9.43;;;6.90;99.90;;;;;;5031321;28;20200;-84
2021/11/24 04:35:42;;;;;;;13.60;10.65;;;7.00;99.90;;;;;;5040034;28;20242;-84
2021/11/24 04:38:10;;;;;;;14.18;10.65;;;7.10;99.90;;;;;;5040053;28;20200;-84
2021/11/24 04:40:37;;;;;;;12.40;8.82;;;7.10;99.90;;;;;;5026883;28;20208;-86
2021/11/24 04:43:08;;;;;;;13.50;9.57;;;7.10;99.90;;;;;;5043155;28;20526;-86
2021/11/24 04:45:36;;;;;;;15.88;10.55;;;7.00;99.90;;;;;;5042150;28;20200;-86
2021/11/24 04:48:04;;;;;;;12.25;8.60;;;7.10;99.90;;;;;;5033669;28;20208;-86
2021/11/24 04:50:31;;;;;;;10.98;8.00;;;7.10;99.90;;;;;;5033265;28;20211;-83
2021/11/24 04:52:59;;;;;;;11.05;8.30;;;7.20;99.90;;;;;;5038017;28;20216;-84
2021/11/24 04:55:27;;;;;;;16.13;8.93;;;7.30;99.90;;;;;;5035561;28;20197;-83
2021/11/24 04:57:56;;;;;;;11.95;8.57;;;7.30;99.90;;;;;;5043282;28;20201;-83
2021/11/24 05:00:24;;;;;;;12.00;8.43;;;7.20;99.90;;;;;;5036951;28;20200;-83
2021/11/24 05:02:52;;;;;;;10.93;8.52;;;7.20;99.90;;;;;;5042368;28;20515;-83
2021/11/24 05:05:24;;;;;;;14.88;10.05;;;7.30;99.90;;;;;;5037684;28;20208;-85
2021/11/24 05:07:52;;;;;;;13.13;9.38;;;7.20;99.90;;;;;;5028484;28;20227;-83
2021/11/24 05:10:19;;;;;;;13.85;8.73;;;6.90;99.90;;;;;;5040723;28;20224;-84
2021/11/24 05:12:47;;;;;;;12.30;8.70;;;6.70;99.90;;;;;;5032748;28;20473;-84
2021/11/24 05:15:21;;;;;;;10.15;7.65;;;6.50;99.90;;;;;;5032949;28;20226;-84
2021/11/24 05:17:54;;;;;;;15.75;9.43;;;6.30;99.90;;;;;;5044473;28;20195;-83
2021/11/24 05:20:24;;;;;;;16.42;10.48;;;6.10;99.90;;;;;;5044965;28;20214;-84
2021/11/24 05:22:53;;;;;;;16.55;10.48;;;6.00;99.90;;;;;;5042383;28;20231;-84
2021/11/24 05:25:21;;;;;;;15.30;10.73;;;5.90;99.90;;;;;;5044783;28;20207;-82
2021/11/24 05:27:48;;;;;;;12.48;8.38;;;5.90;99.90;;;;;;5028779;28;20211;-86
2021/11/24 05:30:15;;;;;;;17.48;9.82;;;5.90;99.90;;;;;;5026403;28;20251;-84
2021/11/24 05:32:43;;;;;;;14.23;11.05;;;6.00;99.90;;;;;;5023373;28;20496;-84
2021/11/24 05:35:10;;;;;;;20.17;10.75;;;6.20;99.90;;;;;;5035734;28;20504;-84
2021/11/24 05:37:38;;;;;;;16.17;11.18;;;6.20;99.90;;;;;;5031282;28;20531;-84
2021/11/24 05:40:06;;;;;;;21.90;11.13;;;6.40;99.90;;;;;;5037162;28;20209;-84
2021/11/24 05:42:34;;;;;;;15.48;10.23;;;6.70;99.90;;;;;;5034576;28;20212;-84
2021/11/24 05:45:12;;;;;;;16.92;11.90;;;6.60;99.90;;;;;;5033941;28;20208;-84
2021/11/24 05:50:39;;;;;;;20.08;11.80;;;6.40;99.90;;;;;;5040309;28;20575;-85
2021/11/24 05:53:07;;;;;;;15.60;8.40;;;6.40;99.90;;;;;;5034343;28;20202;-84
2021/11/24 05:55:34;;;;;;;16.65;9.82;;;6.40;99.90;;;;;;5037007;28;20200;-84
2021/11/24 05:58:03;;;;;;;20.35;9.85;;;6.60;99.90;;;;;;5040973;28;20215;-84
2021/11/24 06:00:30;;;;;;;13.50;8.30;;;6.70;99.90;;;;;;5041902;28;20526;-84
2021/11/24 06:02:58;;;;;;;15.30;9.57;;;6.70;99.90;;;;;;5050470;28;20226;-85
2021/11/24 06:05:26;;;;;;;14.73;8.55;;;6.50;99.90;;;;;;5036430;28;20253;-85
2021/11/24 06:07:56;;;;;;;13.00;8.65;;;6.70;99.90;;;;;;5036800;28;20208;-85
2021/11/24 06:10:24;;;;;;;11.38;8.02;;;6.70;99.90;;;;;;5031488;28;20222;-84
2021/11/24 06:12:52;;;;;;;10.35;7.72;;;6.60;99.90;;;;;;5030233;28;20368;-85
2021/11/24 06:15:20;;;;;;;14.05;9.05;;;6.60;99.90;;;;;;5045830;28;20311;-83
2021/11/24 06:17:48;;;;;;;11.18;9.05;;;6.70;99.90;;;;;;5033798;28;20199;-84
2021/11/24 06:20:17;;;;;;;10.70;7.65;;;6.40;99.90;;;;;;5041587;28;20358;-85
2021/11/24 06:22:46;;;;;;;9.25;5.82;;;6.60;99.90;;;;;;5027826;28;20422;-83
2021/11/24 06:25:17;;;;;;;11.45;7.65;;;6.60;99.90;;;;;;5029939;28;20216;-84
2021/11/24 06:27:45;;;;;;;8.70;6.18;;;6.50;99.90;;;;;;5048215;28;20245;-85
2021/11/24 06:30:15;;;;;;;13.85;8.52;;;6.50;99.90;;;;;;5032752;28;20231;-85
2021/11/24 06:32:43;;;;;;;14.95;8.88;;;6.50;99.90;;;;;;5031624;28;20196;-86
2021/11/24 06:35:11;;;;;;;15.35;9.02;;;6.60;99.90;;;;;;5044580;28;20279;-86
2021/11/24 06:37:39;;;;;;;10.60;6.97;;;6.50;99.90;;;;;;5023567;28;20513;-84
2021/11/24 06:40:08;;;;;;;12.35;8.25;;;6.50;99.90;;;;;;5040901;28;20207;-85
2021/11/24 06:42:36;;;;;;;9.30;7.28;;;6.60;99.90;;;;;;5024874;28;20466;-83
2021/11/24 06:45:05;;;;;;;11.50;7.53;;;6.70;99.90;;;;;;5039326;28;20196;-83
2021/11/24 06:47:33;;;;;;;9.40;7.22;;;6.80;99.90;;;;;;5033040;28;20230;-84
2021/11/24 06:50:00;;;;;;;9.45;6.20;;;6.70;99.90;;;;;;5036297;28;20482;-85
2021/11/24 06:52:28;;;;;;;11.27;7.30;;;6.50;99.90;;;;;;5040393;28;20207;-84
2021/11/24 06:54:55;;;;;;;11.57;7.47;;;6.60;99.90;;;;;;5026795;28;20258;-84
2021/11/24 06:57:23;;;;;;;7.55;5.50;;;6.80;99.90;;;;;;5036727;28;20212;-84
2021/11/24 06:59:51;;;;;;;9.68;7.03;;;6.90;99.90;;;;;;5026409;28;20259;-84
2021/11/24 07:02:20;;;;;;;10.38;7.03;;;7.10;99.90;;;;;;5038338;28;20202;-86
2021/11/24 07:04:48;;;;;;;10.77;8.00;;;7.30;99.90;;;;;;5033597;28;20268;-84
2021/11/24 07:07:15;;;;;;;9.00;6.75;;;7.30;99.90;;;;;;5036774;28;20247;-84
2021/11/24 07:09:43;;;;;;;10.48;9.18;;;7.50;99.90;;;;;;5040392;28;20223;-85
2021/11/24 07:12:11;;;;;;;13.00;8.40;;;7.60;99.90;;;;;;5025994;28;20225;-86
2021/11/24 07:14:39;;;;;;;12.23;8.30;;;7.50;99.90;;;;;;5036467;28;20204;-86
2021/11/24 07:17:07;;;;;;;14.40;8.60;;;7.60;99.90;;;;;;5031262;28;20360;-84
2021/11/24 07:19:35;;;;;;;14.90;8.30;;;7.60;99.90;;;;;;5034552;28;20204;-85
2021/11/24 07:22:03;;;;;;;13.60;8.98;;;7.70;99.90;;;;;;5039204;28;20205;-85
2021/11/24 07:24:31;;;;;;;13.52;7.93;;;7.80;99.90;;;;;;5039119;28;20250;-84
2021/11/24 07:26:58;;;;;;;9.10;7.22;;;7.70;99.90;;;;;;5039320;28;20436;-84
2021/11/24 07:29:25;;;;;;;12.35;7.13;;;7.80;99.90;;;;;;5037792;28;20203;-84
2021/11/24 07:31:53;;;;;;;10.05;7.18;;;7.50;99.90;;;;;;5043443;28;20454;-84
2021/11/24 07:34:21;;;;;;;13.13;8.10;;;7.50;99.90;;;;;;5031907;28;20203;-84
2021/11/24 07:36:48;;;;;;;13.82;7.13;;;7.50;99.90;;;;;;5032397;28;20205;-84
2021/11/24 07:39:16;;;;;;;9.25;7.15;;;7.60;99.90;;;;;;5028220;28;20215;-84
2021/11/24 07:41:43;;;;;;;10.25;6.95;;;7.70;99.90;;;;;;5047212;28;20208;-86
2021/11/24 07:44:11;;;;;;;11.02;6.82;;;7.80;99.90;;;;;;5039890;28;20242;-84
2021/11/24 07:46:39;;;;;;;11.20;8.20;;;7.80;99.90;;;;;;5045366;28;20573;-82
2021/11/24 07:49:07;;;;;;;14.88;8.23;;;7.70;99.90;;;;;;5046625;28;20200;-82
2021/11/24 07:51:35;;;;;;;14.32;7.95;;;7.70;99.90;;;;;;5029422;28;20254;-82
2021/11/24 07:54:02;;;;;;;13.70;7.63;;;7.90;99.90;;;;;;5046267;28;20219;-83
2021/11/24 07:56:29;;;;;;;8.98;6.55;;;8.00;99.90;;;;;;5045371;28;20427;-83
2021/11/24 07:58:56;;;;;;;8.43;6.88;;;8.10;99.90;;;;;;5044623;28;20196;-82
2021/11/24 08:01:24;;;;;;;15.15;8.57;;;8.10;99.90;;;;;;5050467;28;20204;-83
2021/11/24 08:03:52;;;;;;;9.98;7.20;;;8.40;99.90;;;;;;5046454;28;20205;-83
2021/11/24 08:06:19;;;;;;;12.80;7.80;;;8.50;99.90;;;;;;5041605;28;20246;-82
2021/11/24 08:08:46;;;;;;;11.30;8.32;;;8.70;99.90;;;;;;5048190;28;20279;-84
2021/11/24 08:11:14;;;;;;;8.23;5.65;;;8.70;99.90;;;;;;5045361;28;20235;-84
2021/11/24 08:13:41;;;;;;;9.48;6.10;;;8.40;99.90;;;;;;5043306;28;20235;-82
2021/11/24 08:16:08;;;;;;;11.77;7.65;;;8.20;99.90;;;;;;5033301;28;20200;-83
2021/11/24 08:18:36;;;;;;;6.10;5.40;;;8.30;99.90;;;;;;5045168;28;20193;-82
2021/11/24 08:21:03;;;;;;;8.80;6.43;;;8.20;99.90;;;;;;5053255;28;20230;-83
2021/11/24 08:23:31;;;;;;;9.95;6.45;;;8.30;99.90;;;;;;5043353;28;20263;-83
2021/11/24 08:25:59;;;;;;;8.32;6.80;;;8.30;99.90;;;;;;5024630;28;20199;-84
2021/11/24 08:28:26;;;;;;;10.40;7.03;;;8.40;99.90;;;;;;5034298;28;20207;-83
2021/11/24 08:30:53;;;;;;;10.23;6.80;;;8.50;99.90;;;;;;5045146;28;20227;-82
2021/11/24 08:33:21;;;;;;;9.13;6.45;;;8.70;99.90;;;;;;5045115;28;20207;-83
2021/11/24 08:35:49;;;;;;;9.43;6.40;;;8.60;99.90;;;;;;5061255;28;20203;-83
2021/11/24 08:38:18;;;;;;;9.18;5.75;;;8.80;99.90;;;;;;5065084;28;20219;-84
2021/11/24 08:40:45;;;;;;;10.50;7.50;;;8.80;99.90;;;;;;5066324;28;20271;-83
2021/11/24 08:43:14;;;;;;;15.60;8.23;;;8.90;99.90;;;;;;5047021;28;20271;-82
2021/11/24 08:45:42;;;;;;;10.55;6.57;;;8.80;99.90;;;;;;5045673;28;20243;-83
2021/11/24 08:48:10;;;;;;;8.77;7.00;;;8.70;99.90;;;;;;5045788;28;20342;-81
2021/11/24 08:50:37;;;;;;;8.02;6.15;;;9.00;99.90;;;;;;5045304;28;20350;-83
2021/11/24 08:53:05;;;;;;;10.18;9.13;;;9.20;99.90;;;;;;5044460;28;20204;-83
2021/11/24 08:55:32;;;;;;;13.07;7.47;;;9.00;99.90;;;;;;5024506;28;20193;-83
2021/11/24 08:58:00;;;;;;;10.88;6.80;;;9.10;99.90;;;;;;5024882;28;20204;-82
2021/11/24 09:00:28;;;;;;;8.05;5.93;;;9.20;99.90;;;;;;5024800;28;20228;-83
2021/11/24 09:02:58;;;;;;;12.73;7.22;;;9.40;99.90;;;;;;5026523;28;20364;-84
2021/11/24 09:05:26;;;;;;;8.85;5.07;;;9.40;99.90;;;;;;5025890;28;20197;-82
2021/11/24 09:07:54;;;;;;;7.63;6.10;;;9.40;99.90;;;;;;5025413;28;20200;-83
2021/11/24 09:10:22;;;;;;;8.20;5.80;;;9.10;99.90;;;;;;5025742;28;20215;-82
2021/11/24 09:12:50;;;;;;;11.77;8.23;;;9.20;99.90;;;;;;5035101;28;20453;-83
2021/11/24 09:15:18;;;;;;;10.65;6.75;;;9.20;99.90;;;;;;5043975;28;20207;-82
2021/11/24 09:18:07;;;;;;;8.02;6.32;;;9.30;99.90;;;;;;5045272;28;20470;-83
2021/11/24 09:20:34;;;;;;;8.25;5.65;;;9.30;99.90;;;;;;5045513;28;20250;-82
2021/11/24 09:23:04;;;;;;;9.63;5.97;;;9.30;99.90;;;;;;5045021;28;20298;-82
2021/11/24 09:25:49;;;;;;;10.68;7.10;;;9.30;99.90;;;;;;5036099;28;20571;-81
2021/11/24 09:28:22;;;;;;;8.40;6.82;;;9.30;99.90;;;;;;5025166;28;20282;-82
2021/11/24 09:30:50;;;;;;;8.13;7.32;;;9.10;99.90;;;;;;5025108;28;20502;-83
2021/11/24 09:33:18;;;;;;;10.57;5.85;;;9.00;99.90;;;;;;5025398;28;20219;-82
2021/11/24 09:35:45;;;;;;;8.45;6.00;;;9.00;99.90;;;;;;5023531;28;20246;-81
2021/11/24 09:38:13;;;;;;;9.57;6.53;;;9.10;99.90;;;;;;5024192;28;20499;-82
2021/11/24 09:40:41;;;;;;;8.30;6.97;;;9.00;99.90;;;;;;5024981;28;20198;-83
2021/11/24 09:43:13;;;;;;;9.80;6.25;;;8.90;99.90;;;;;;5023075;28;20243;-82
2021/11/24 09:45:44;;;;;;;9.95;5.30;;;9.20;99.90;;;;;;5024984;28;20185;-82
2021/11/24 09:48:18;;;;;;;9.38;6.07;;;9.20;99.90;;;;;;5024493;28;20197;-82
2021/11/24 09:50:48;;;;;;;8.02;5.75;;;9.20;99.90;;;;;;5024828;28;20185;-82
2021/11/24 09:53:17;;;;;;;9.90;6.20;;;9.40;99.90;;;;;;5023732;28;20185;-81
2021/11/24 09:55:45;;;;;;;10.15;5.35;;;9.40;99.90;;;;;;5026540;28;20223;-82
2021/11/24 09:58:16;;;;;;;8.90;6.35;;;9.20;99.90;;;;;;5044385;28;20261;-82
2021/11/24 10:00:44;;;;;;;7.20;6.07;;;9.10;99.90;;;;;;5044545;28;20236;-83
2021/11/24 10:03:13;;;;;;;9.20;5.60;;;9.30;99.90;;;;;;5043844;28;20224;-80
2021/11/24 10:05:41;;;;;;;19.05;6.05;;;9.20;99.90;;;;;;5043955;28;20236;-83
2021/11/24 10:08:10;;;;;;;8.75;6.72;;;9.20;99.90;;;;;;5044414;28;20223;-83
2021/11/24 10:10:38;;;;;;;12.27;5.82;;;9.30;99.90;;;;;;5043825;28;20197;-81
2021/11/24 10:13:05;;;;;;;10.13;5.53;;;9.40;99.90;;;;;;5044157;28;20205;-82
2021/11/24 10:15:46;;;;;;;8.57;6.20;;;9.50;99.90;;;;;;5044380;28;20485;-81
2021/11/24 10:18:21;;;;;;;8.20;7.07;;;9.50;99.90;;;;;;5043997;28;20230;-83
2021/11/24 10:21:02;;;;;;;7.30;5.95;;;9.30;99.90;;;;;;5043794;28;20216;-81
2021/11/24 10:23:42;;;;;;;6.78;5.55;;;9.20;99.90;;;;;;5043687;28;20265;-81
2021/11/24 10:26:32;;;;;;;7.10;5.55;;;9.10;99.90;;;;;;5024494;28;20196;-82
2021/11/24 10:29:21;;;;;;;7.95;5.97;;;9.10;99.90;;;;;;5024640;28;20198;-82
2021/11/24 10:32:05;;;;;;;8.93;5.50;;;9.20;99.90;;;;;;5024030;28;20230;-82
2021/11/24 10:34:34;;;;;;;12.00;6.65;;;9.40;99.90;;;;;;5023856;28;20207;-82
2021/11/24 10:37:22;;;;;;;13.27;6.97;;;9.50;99.90;;;;;;5022561;28;20198;-82
2021/11/24 10:40:05;;;;;;;9.73;6.88;;;9.60;99.90;;;;;;5027461;28;20208;-83
2021/11/24 10:42:35;;;;;;;9.13;6.13;;;9.40;99.90;;;;;;5043778;28;20193;-82
2021/11/24 10:45:08;;;;;;;10.73;6.78;;;9.40;99.90;;;;;;5042490;28;20247;-81
2021/11/24 10:47:55;;;;;;;9.95;5.63;;;9.40;99.90;;;;;;5043850;28;20258;-82
2021/11/24 10:50:26;;;;;;;9.85;6.20;;;9.30;99.90;;;;;;5027769;28;20356;-83
2021/11/24 10:53:20;;;;;;;16.20;6.90;;;9.30;99.90;;;;;;5047218;28;20431;-83
2021/11/24 10:55:48;;;;;;;12.95;7.03;;;9.40;99.90;;;;;;5045296;28;20476;-83
2021/11/24 10:58:17;;;;;;;8.63;6.90;;;9.40;99.90;;;;;;5045560;28;20258;-83
2021/11/24 11:00:47;;;;;;;7.32;5.72;;;9.40;99.90;;;;;;5047240;28;20194;-83
2021/11/24 11:03:37;;;;;;;12.18;5.55;;;9.50;99.90;;;;;;5032291;28;20201;-83
2021/11/24 11:06:05;;;;;;;9.38;6.10;;;9.50;99.90;;;;;;5047636;28;20251;-83
2021/11/24 11:08:33;;;;;;;10.20;6.40;;;9.70;99.90;;;;;;5047620;28;20229;-83
2021/11/24 11:11:27;;;;;;;12.10;8.10;;;9.80;99.90;;;;;;5047413;28;20235;-83
2021/11/24 11:14:22;;;;;;;7.75;6.75;;;9.90;99.90;;;;;;5046004;28;20191;-83
2021/11/24 11:16:55;;;;;;;13.05;7.68;;;9.90;99.90;;;;;;5046227;28;20232;-83
2021/11/24 11:19:56;;;;;;;8.60;5.18;;;10.30;99.90;;;;;;5047503;28;20198;-82
2021/11/24 11:22:24;;;;;;;7.68;5.43;;;10.20;99.90;;;;;;5033853;28;20228;-82
2021/11/24 11:24:51;;;;;;;10.50;6.07;;;10.10;99.90;;;;;;5047626;28;20208;-82
2021/11/24 11:27:19;;;;;;;10.52;5.90;;;9.90;99.90;;;;;;5047129;28;20201;-83
2021/11/24 11:29:47;;;;;;;8.57;6.95;;;9.90;99.90;;;;;;5047806;28;20494;-84
2021/11/24 11:32:15;;;;;;;6.53;5.45;;;10.10;99.90;;;;;;5047256;28;20222;-83
2021/11/24 11:34:43;;;;;;;7.22;5.75;;;10.20;99.90;;;;;;5039960;28;20261;-83
2021/11/24 11:37:15;;;;;;;7.95;5.80;;;10.20;99.90;;;;;;5027389;28;20199;-83
2021/11/24 11:39:44;;;;;;;10.68;6.38;;;10.40;99.90;;;;;;5033745;28;20194;-83
2021/11/24 11:42:17;;;;;;;8.02;6.07;;;10.40;99.90;;;;;;5037006;28;20276;-83
2021/11/24 11:45:10;;;;;;;9.32;6.05;;;10.30;99.90;;;;;;5031553;28;20225;-83
2021/11/24 11:48:00;;;;;;;6.32;5.07;;;10.10;99.90;;;;;;5033666;28;20194;-84
2021/11/24 11:50:53;;;;;;;5.72;4.60;;;9.90;99.90;;;;;;5044549;28;20199;-82
2021/11/24 11:53:40;;;;;;;8.40;5.75;;;9.90;99.90;;;;;;5043374;28;20564;-83
2021/11/24 11:56:17;;;;;;;8.82;6.20;;;9.90;99.90;;;;;;5027255;28;20248;-84
2021/11/24 11:58:50;;;;;;;11.43;6.65;;;10.10;99.90;;;;;;5027059;28;20193;-83
2021/11/24 12:01:32;;;;;;;8.98;5.53;;;10.10;99.90;;;;;;5025139;28;20214;-84
2021/11/24 12:04:17;;;;;;;16.25;6.82;;;10.00;99.90;;;;;;5026929;28;20213;-84
2021/11/24 12:06:53;;;;;;;11.68;6.70;;;10.00;99.90;;;;;;5027054;28;20188;-83
2021/11/24 12:09:47;;;;;;;10.25;6.43;;;9.90;99.90;;;;;;5026269;28;20205;-85
2021/11/24 12:12:23;;;;;;;12.10;8.70;;;9.90;99.90;;;;;;5026312;28;20210;-84
2021/11/24 12:15:27;;;;;;;8.07;6.38;;;9.90;99.90;;;;;;5026632;28;20307;-83
2021/11/24 12:18:09;;;;;;;9.07;6.60;;;10.00;99.90;;;;;;5027020;28;20186;-85
2021/11/24 12:20:41;;;;;;;9.23;6.13;;;9.90;99.90;;;;;;5027102;28;20450;-83
2021/11/24 12:23:28;;;;;;;9.60;6.18;;;9.80;99.90;;;;;;5025508;28;20271;-83
2021/11/24 12:25:59;;;;;;;10.85;6.35;;;9.70;99.90;;;;;;5036329;28;20214;-83
2021/11/24 12:28:34;;;;;;;13.82;6.22;;;9.50;99.90;;;;;;5048630;28;20194;-84
2021/11/24 12:31:05;;;;;;;9.35;6.10;;;9.50;99.90;;;;;;5065664;28;20185;-84
2021/11/24 12:33:39;;;;;;;15.40;7.72;;;9.60;99.90;;;;;;5033992;28;20226;-83
2021/11/24 12:36:21;;;;;;;9.73;6.20;;;9.50;99.90;;;;;;5026419;28;20212;-85
2021/11/24 12:39:02;;;;;;;10.57;6.95;;;9.40;99.90;;;;;;5025106;28;20206;-84
2021/11/24 12:41:36;;;;;;;9.55;6.90;;;9.40;99.90;;;;;;5029377;28;20220;-83
2021/11/24 12:44:09;;;;;;;7.85;5.60;;;9.40;99.90;;;;;;5045857;28;20200;-85
2021/11/24 12:46:43;;;;;;;9.50;6.43;;;9.20;99.90;;;;;;5044674;28;20223;-84
2021/11/24 12:49:17;;;;;;;9.57;7.90;;;9.30;99.90;;;;;;5034988;28;20232;-84
2021/11/24 12:51:51;;;;;;;5.35;4.53;;;9.30;99.90;;;;;;5024624;28;20245;-84
2021/11/24 12:54:27;;;;;;;6.40;4.95;;;9.40;99.90;;;;;;5035472;28;20300;-83
2021/11/24 12:57:00;;;;;;;8.07;7.22;;;9.60;99.90;;;;;;5045827;28;20181;-83
2021/11/24 12:59:30;;;;;;;7.90;6.50;;;9.50;99.90;;;;;;5045646;28;20259;-83
2021/11/24 13:02:06;;;;;;;10.85;6.97;;;9.40;99.90;;;;;;5045455;28;20193;-84
2021/11/24 13:04:41;;;;;;;9.15;6.40;;;9.40;99.90;;;;;;5044387;28;20279;-84
2021/11/24 13:07:21;;;;;;;11.50;6.55;;;9.60;99.90;;;;;;5046298;28;20507;-83
2021/11/24 13:09:51;;;;;;;10.48;7.28;;;9.70;99.90;;;;;;5046084;28;20193;-82